logo
Rechercher aéroport 
image banner adimage banner adimage banner ad
image banner ad

YCAX - Carrara

Situé à Benowa, Australia

ICAO - , IATA -

Données fournies par Airmate  

Information générale

Coordonnées: S28°0'0" E153°22'0"
Élévation : 7 feet MSL.
Variation magnétique : 11° East
Voir autres Aéroports à Queensland

Données opérationnelles

Special qualification required
Heure actuelle UTC:
Heure actuelle locale:
Météo à : YBCG - Gold Coast ( 23 km )
METAR: YBCG 032200Z AUTO 18007KT 9999 // NCD 26/23 Q1015 RF00.0/006.4
TAF: TAF YBCG 032007Z 0321/0418 17006KT 9999 -SHRA SCT020 FM040000 15012KT 9999 -SHRA SCT020 BKN030 FM040200 14015G25KT 9999 -SHRA FEW020 BKN030 FM040700 15012KT 9999 -SHRA SCT020 BKN030 FM041600 20008KT 9999 -SHRA SCT015 BKN030 INTER 0323/0418 4000 SHRA BKN010 PROB30 TEMPO 0402/0408 VRB20G35KT 1000 TSRA BKN008 SCT035CB
Voir NOTAMs / SUP AIP / TFR affectant cet aéroport [VIEW]
Fréquences de communication: [VIEW]

Pistes:

Coordonnées de l'aéroport

Adresse: Benowa Australia

Vue satellite de YCAX